Terminal Aerodrome Forecast
Issued by NWS Charleston, WV

Home | Current Version | Previous Version | Text Only | Print | Product List | Glossary On
Versions: 1 2 3 4 5 6 7 8 9 10 11 12 13 14 15 16 17 18 19 20 21 22 23 24 25 26 27
000
FTUS41 KRLX 230500
TAFCRW
TAF
KCRW 230532Z 2306/2406 31005KT P6SM OVC025
     FM230800 VRB03KT P6SM OVC020
     FM231400 30005KT P6SM SCT015 BKN035
     FM232000 30005KT P6SM SCT025
     FM240000 00000KT P6SM FEW030
     FM240500 00000KT P6SM FEW150=

USA.gov is the U.S. government's official web portal to all federal, state and local government web resources and services.